Terminal Aerodrome Forecast
Issued by NWS

Home | Current Version | Previous Version | Text Only | Print | Product List | Glossary On
Versions: 1 2 3 4 5 6 7 8 9 10 11 12 13 14 15 16 17
000
FTUS46 KSTO 241700
TAFSMF
TAF
KSMF 241735Z 2418/2518 VRB05KT 2SM BR MIFG FEW250
      TEMPO 2418/2419 1/2SM FG SCT003
     FM241900 18010KT P6SM SCT250
     FM251000 17011KT P6SM OVC100
      TEMPO 2514/2516 P6SM -RA OVC025=

USA.gov is the U.S. government's official web portal to all federal, state and local government web resources and services.